sensor_id;sensor_type;location;lat;lon;timestamp;temperature;humidity
52044;DHT22;38053;53.100;6.078;2023-03-01T00:01:31;-0.30;99.90
52044;DHT22;38053;53.100;6.078;2023-03-01T00:04:00;-0.30;99.90
52044;DHT22;38053;53.100;6.078;2023-03-01T00:06:27;-0.40;99.90
52044;DHT22;38053;53.100;6.078;2023-03-01T00:08:53;-0.50;99.90
52044;DHT22;38053;53.100;6.078;2023-03-01T00:11:20;-0.50;99.90
52044;DHT22;38053;53.100;6.078;2023-03-01T00:13:49;-0.50;99.90
52044;DHT22;38053;53.100;6.078;2023-03-01T00:16:19;-0.50;99.90
52044;DHT22;38053;53.100;6.078;2023-03-01T00:18:45;-0.50;99.90
52044;DHT22;38053;53.100;6.078;2023-03-01T00:21:11;-0.60;99.90
52044;DHT22;38053;53.100;6.078;2023-03-01T00:23:38;-0.60;99.90
52044;DHT22;38053;53.100;6.078;2023-03-01T00:26:12;-0.60;99.90
52044;DHT22;38053;53.100;6.078;2023-03-01T00:28:39;-0.60;99.90
52044;DHT22;38053;53.100;6.078;2023-03-01T00:31:06;-0.70;99.90
52044;DHT22;38053;53.100;6.078;2023-03-01T00:33:35;-0.70;99.90
52044;DHT22;38053;53.100;6.078;2023-03-01T00:36:01;-0.70;99.90
52044;DHT22;38053;53.100;6.078;2023-03-01T00:38:27;-0.70;99.90
52044;DHT22;38053;53.100;6.078;2023-03-01T00:41:05;-0.70;99.90
52044;DHT22;38053;53.100;6.078;2023-03-01T00:43:31;-0.70;99.90
52044;DHT22;38053;53.100;6.078;2023-03-01T00:46:05;-0.70;99.90
52044;DHT22;38053;53.100;6.078;2023-03-01T00:48:32;-0.70;99.90
52044;DHT22;38053;53.100;6.078;2023-03-01T00:51:07;-0.70;99.90
52044;DHT22;38053;53.100;6.078;2023-03-01T00:53:33;-0.80;99.90
52044;DHT22;38053;53.100;6.078;2023-03-01T00:55:59;-0.80;99.90
52044;DHT22;38053;53.100;6.078;2023-03-01T00:58:25;-0.80;99.90
52044;DHT22;38053;53.100;6.078;2023-03-01T01:00:51;-0.90;99.90
52044;DHT22;38053;53.100;6.078;2023-03-01T01:03:18;-0.90;99.90
52044;DHT22;38053;53.100;6.078;2023-03-01T01:05:47;-0.90;99.90
52044;DHT22;38053;53.100;6.078;2023-03-01T01:08:13;-0.90;99.90
52044;DHT22;38053;53.100;6.078;2023-03-01T01:10:39;-0.90;99.90
52044;DHT22;38053;53.100;6.078;2023-03-01T01:13:04;-1.00;99.90
52044;DHT22;38053;53.100;6.078;2023-03-01T01:15:34;-1.00;99.90
52044;DHT22;38053;53.100;6.078;2023-03-01T01:18:00;-1.00;99.90
52044;DHT22;38053;53.100;6.078;2023-03-01T01:20:28;-1.00;99.90
52044;DHT22;38053;53.100;6.078;2023-03-01T01:22:54;-1.00;99.90
52044;DHT22;38053;53.100;6.078;2023-03-01T01:25:19;-1.00;99.90
52044;DHT22;38053;53.100;6.078;2023-03-01T01:27:46;-1.10;99.90
52044;DHT22;38053;53.100;6.078;2023-03-01T01:30:12;-1.00;99.90
52044;DHT22;38053;53.100;6.078;2023-03-01T01:32:38;-1.00;99.90
52044;DHT22;38053;53.100;6.078;2023-03-01T01:35:05;-1.10;99.90
52044;DHT22;38053;53.100;6.078;2023-03-01T01:37:30;-1.10;99.90
52044;DHT22;38053;53.100;6.078;2023-03-01T01:39:59;-1.10;99.90
52044;DHT22;38053;53.100;6.078;2023-03-01T01:42:26;-1.10;99.90
52044;DHT22;38053;53.100;6.078;2023-03-01T01:48:00;-1.10;99.90
52044;DHT22;38053;53.100;6.078;2023-03-01T01:50:39;-1.10;99.90
52044;DHT22;38053;53.100;6.078;2023-03-01T01:53:11;-1.10;99.90
52044;DHT22;38053;53.100;6.078;2023-03-01T01:55:42;-1.10;99.90
52044;DHT22;38053;53.100;6.078;2023-03-01T01:58:11;-1.10;99.90
52044;DHT22;38053;53.100;6.078;2023-03-01T02:00:41;-1.10;99.90
52044;DHT22;38053;53.100;6.078;2023-03-01T02:03:10;-1.20;99.90
52044;DHT22;38053;53.100;6.078;2023-03-01T02:08:26;-1.20;99.90
52044;DHT22;38053;53.100;6.078;2023-03-01T02:10:53;-1.20;99.90
52044;DHT22;38053;53.100;6.078;2023-03-01T02:13:20;-1.30;99.90
52044;DHT22;38053;53.100;6.078;2023-03-01T02:15:47;-1.40;99.90
52044;DHT22;38053;53.100;6.078;2023-03-01T02:18:16;-1.40;99.90
52044;DHT22;38053;53.100;6.078;2023-03-01T02:24:08;-1.50;99.90
52044;DHT22;38053;53.100;6.078;2023-03-01T02:26:51;-1.50;99.90
52044;DHT22;38053;53.100;6.078;2023-03-01T02:29:20;-1.50;99.90
52044;DHT22;38053;53.100;6.078;2023-03-01T02:31:47;-1.50;99.90
52044;DHT22;38053;53.100;6.078;2023-03-01T02:34:17;-1.50;99.90
52044;DHT22;38053;53.100;6.078;2023-03-01T02:37:09;-1.50;99.90
52044;DHT22;38053;53.100;6.078;2023-03-01T02:39:44;-1.50;99.90
52044;DHT22;38053;53.100;6.078;2023-03-01T02:42:15;-1.50;99.90
52044;DHT22;38053;53.100;6.078;2023-03-01T02:44:42;-1.50;99.90
52044;DHT22;38053;53.100;6.078;2023-03-01T02:47:08;-1.50;99.90
52044;DHT22;38053;53.100;6.078;2023-03-01T02:49:35;-1.50;99.90
52044;DHT22;38053;53.100;6.078;2023-03-01T02:54:48;-1.60;99.90
52044;DHT22;38053;53.100;6.078;2023-03-01T02:57:16;-1.60;99.90
52044;DHT22;38053;53.100;6.078;2023-03-01T02:59:42;-1.70;99.90
52044;DHT22;38053;53.100;6.078;2023-03-01T03:05:22;-1.70;99.90
52044;DHT22;38053;53.100;6.078;2023-03-01T03:07:49;-1.70;99.90
52044;DHT22;38053;53.100;6.078;2023-03-01T03:10:27;-1.70;99.90
52044;DHT22;38053;53.100;6.078;2023-03-01T03:12:56;-1.70;99.90
52044;DHT22;38053;53.100;6.078;2023-03-01T03:15:23;-1.70;99.90
52044;DHT22;38053;53.100;6.078;2023-03-01T03:17:51;-1.70;99.90
52044;DHT22;38053;53.100;6.078;2023-03-01T03:20:21;-1.80;99.90
52044;DHT22;38053;53.100;6.078;2023-03-01T03:22:49;-1.80;99.90
52044;DHT22;38053;53.100;6.078;2023-03-01T03:25:17;-1.80;99.90
52044;DHT22;38053;53.100;6.078;2023-03-01T03:27:44;-1.80;99.90
52044;DHT22;38053;53.100;6.078;2023-03-01T03:30:15;-1.80;99.90
52044;DHT22;38053;53.100;6.078;2023-03-01T03:32:43;-1.80;99.90
52044;DHT22;38053;53.100;6.078;2023-03-01T03:35:20;-1.80;99.90
52044;DHT22;38053;53.100;6.078;2023-03-01T03:37:46;-1.70;99.90
52044;DHT22;38053;53.100;6.078;2023-03-01T03:40:30;-1.70;99.90
52044;DHT22;38053;53.100;6.078;2023-03-01T03:42:56;-1.70;99.90
52044;DHT22;38053;53.100;6.078;2023-03-01T03:45:22;-1.80;99.90
52044;DHT22;38053;53.100;6.078;2023-03-01T03:47:47;-1.80;99.90
52044;DHT22;38053;53.100;6.078;2023-03-01T03:50:15;-1.80;99.90
52044;DHT22;38053;53.100;6.078;2023-03-01T03:52:42;-1.80;99.90
52044;DHT22;38053;53.100;6.078;2023-03-01T03:55:09;-1.80;99.90
52044;DHT22;38053;53.100;6.078;2023-03-01T03:57:36;-1.80;99.90
52044;DHT22;38053;53.100;6.078;2023-03-01T04:00:03;-1.90;99.90
52044;DHT22;38053;53.100;6.078;2023-03-01T04:02:30;-2.00;99.90
52044;DHT22;38053;53.100;6.078;2023-03-01T04:04:56;-2.00;99.90
52044;DHT22;38053;53.100;6.078;2023-03-01T04:07:22;-2.00;99.90
52044;DHT22;38053;53.100;6.078;2023-03-01T04:09:49;-2.10;99.90
52044;DHT22;38053;53.100;6.078;2023-03-01T04:12:16;-2.20;99.90
52044;DHT22;38053;53.100;6.078;2023-03-01T04:14:49;-2.20;99.90
52044;DHT22;38053;53.100;6.078;2023-03-01T04:17:14;-2.30;99.90
52044;DHT22;38053;53.100;6.078;2023-03-01T04:19:41;-2.30;99.90
52044;DHT22;38053;53.100;6.078;2023-03-01T04:22:11;-2.30;99.90
52044;DHT22;38053;53.100;6.078;2023-03-01T04:24:42;-2.40;99.90
52044;DHT22;38053;53.100;6.078;2023-03-01T04:27:09;-2.40;99.90
52044;DHT22;38053;53.100;6.078;2023-03-01T04:29:35;-2.50;99.90
52044;DHT22;38053;53.100;6.078;2023-03-01T04:32:00;-2.50;99.90
52044;DHT22;38053;53.100;6.078;2023-03-01T04:34:26;-2.50;99.90
52044;DHT22;38053;53.100;6.078;2023-03-01T04:36:52;-2.60;99.90
52044;DHT22;38053;53.100;6.078;2023-03-01T04:39:19;-2.60;99.90
52044;DHT22;38053;53.100;6.078;2023-03-01T04:41:45;-2.60;99.90
52044;DHT22;38053;53.100;6.078;2023-03-01T04:44:13;-2.60;99.90
52044;DHT22;38053;53.100;6.078;2023-03-01T04:46:39;-2.60;99.90
52044;DHT22;38053;53.100;6.078;2023-03-01T04:49:05;-2.60;99.90
52044;DHT22;38053;53.100;6.078;2023-03-01T04:51:31;-2.60;99.90
52044;DHT22;38053;53.100;6.078;2023-03-01T04:53:59;-2.60;99.90
52044;DHT22;38053;53.100;6.078;2023-03-01T04:56:25;-2.60;99.90
52044;DHT22;38053;53.100;6.078;2023-03-01T04:58:53;-2.60;99.90
52044;DHT22;38053;53.100;6.078;2023-03-01T05:01:20;-2.60;99.90
52044;DHT22;38053;53.100;6.078;2023-03-01T05:03:48;-2.60;99.90
52044;DHT22;38053;53.100;6.078;2023-03-01T05:06:15;-2.70;99.90
52044;DHT22;38053;53.100;6.078;2023-03-01T05:08:42;-2.70;99.90
52044;DHT22;38053;53.100;6.078;2023-03-01T05:11:08;-2.70;99.90
52044;DHT22;38053;53.100;6.078;2023-03-01T05:13:38;-2.70;99.90
52044;DHT22;38053;53.100;6.078;2023-03-01T05:16:08;-2.80;99.90
52044;DHT22;38053;53.100;6.078;2023-03-01T05:18:37;-2.80;99.90
52044;DHT22;38053;53.100;6.078;2023-03-01T05:21:09;-2.80;99.90
52044;DHT22;38053;53.100;6.078;2023-03-01T05:23:36;-2.80;99.90
52044;DHT22;38053;53.100;6.078;2023-03-01T05:26:03;-2.80;99.90
52044;DHT22;38053;53.100;6.078;2023-03-01T05:28:31;-2.90;99.90
52044;DHT22;38053;53.100;6.078;2023-03-01T05:30:59;-2.90;99.90
52044;DHT22;38053;53.100;6.078;2023-03-01T05:33:27;-3.00;99.90
52044;DHT22;38053;53.100;6.078;2023-03-01T05:35:53;-3.00;99.90
52044;DHT22;38053;53.100;6.078;2023-03-01T05:38:20;-3.00;99.90
52044;DHT22;38053;53.100;6.078;2023-03-01T05:40:47;-3.00;99.90
52044;DHT22;38053;53.100;6.078;2023-03-01T05:43:14;-3.00;99.90
52044;DHT22;38053;53.100;6.078;2023-03-01T05:45:42;-3.10;99.90
52044;DHT22;38053;53.100;6.078;2023-03-01T05:48:09;-3.10;99.90
52044;DHT22;38053;53.100;6.078;2023-03-01T05:50:39;-3.10;99.90
52044;DHT22;38053;53.100;6.078;2023-03-01T05:53:16;-3.10;99.90
52044;DHT22;38053;53.100;6.078;2023-03-01T05:55:43;-3.10;99.90
52044;DHT22;38053;53.100;6.078;2023-03-01T05:58:12;-3.10;99.90
52044;DHT22;38053;53.100;6.078;2023-03-01T06:00:43;-3.20;99.90
52044;DHT22;38053;53.100;6.078;2023-03-01T06:03:11;-3.10;99.90
52044;DHT22;38053;53.100;6.078;2023-03-01T06:05:38;-3.10;99.90
52044;DHT22;38053;53.100;6.078;2023-03-01T06:08:05;-3.10;99.90
52044;DHT22;38053;53.100;6.078;2023-03-01T06:10:32;-3.10;99.90
52044;DHT22;38053;53.100;6.078;2023-03-01T06:12:58;-3.10;99.90
52044;DHT22;38053;53.100;6.078;2023-03-01T06:15:25;-3.10;99.90
52044;DHT22;38053;53.100;6.078;2023-03-01T06:17:53;-3.10;99.90
52044;DHT22;38053;53.100;6.078;2023-03-01T06:20:24;-3.10;99.90
52044;DHT22;38053;53.100;6.078;2023-03-01T06:22:51;-3.10;99.90
52044;DHT22;38053;53.100;6.078;2023-03-01T06:25:20;-3.10;99.90
52044;DHT22;38053;53.100;6.078;2023-03-01T06:27:46;-3.10;99.90
52044;DHT22;38053;53.100;6.078;2023-03-01T06:30:18;-3.10;99.90
52044;DHT22;38053;53.100;6.078;2023-03-01T06:32:44;-3.10;99.90
52044;DHT22;38053;53.100;6.078;2023-03-01T06:35:12;-3.10;99.90
52044;DHT22;38053;53.100;6.078;2023-03-01T06:37:38;-3.10;99.90
52044;DHT22;38053;53.100;6.078;2023-03-01T06:40:04;-3.10;99.90
52044;DHT22;38053;53.100;6.078;2023-03-01T06:42:40;-3.10;99.90
52044;DHT22;38053;53.100;6.078;2023-03-01T06:45:10;-3.00;99.90
52044;DHT22;38053;53.100;6.078;2023-03-01T06:47:35;-3.00;99.90
52044;DHT22;38053;53.100;6.078;2023-03-01T06:50:02;-3.00;99.90
52044;DHT22;38053;53.100;6.078;2023-03-01T06:52:28;-3.00;99.90
52044;DHT22;38053;53.100;6.078;2023-03-01T06:54:55;-3.00;99.90
52044;DHT22;38053;53.100;6.078;2023-03-01T06:57:21;-3.00;99.90
52044;DHT22;38053;53.100;6.078;2023-03-01T06:59:48;-3.00;99.90
52044;DHT22;38053;53.100;6.078;2023-03-01T07:02:15;-2.90;99.90
52044;DHT22;38053;53.100;6.078;2023-03-01T07:04:43;-2.90;99.90
52044;DHT22;38053;53.100;6.078;2023-03-01T07:07:10;-2.90;99.90
52044;DHT22;38053;53.100;6.078;2023-03-01T07:09:36;-2.90;99.90
52044;DHT22;38053;53.100;6.078;2023-03-01T07:12:02;-2.80;99.90
52044;DHT22;38053;53.100;6.078;2023-03-01T07:14:28;-2.80;99.90
52044;DHT22;38053;53.100;6.078;2023-03-01T07:16:54;-2.80;99.90
52044;DHT22;38053;53.100;6.078;2023-03-01T07:19:25;-2.70;99.90
52044;DHT22;38053;53.100;6.078;2023-03-01T07:21:51;-2.70;99.90
52044;DHT22;38053;53.100;6.078;2023-03-01T07:24:17;-2.70;99.90
52044;DHT22;38053;53.100;6.078;2023-03-01T07:26:43;-2.60;99.90
52044;DHT22;38053;53.100;6.078;2023-03-01T07:29:10;-2.60;99.90
52044;DHT22;38053;53.100;6.078;2023-03-01T07:31:36;-2.50;99.90
52044;DHT22;38053;53.100;6.078;2023-03-01T07:34:03;-2.40;99.90
52044;DHT22;38053;53.100;6.078;2023-03-01T07:36:30;-2.40;99.90
52044;DHT22;38053;53.100;6.078;2023-03-01T07:38:56;-2.30;99.90
52044;DHT22;38053;53.100;6.078;2023-03-01T07:41:26;-2.20;99.90
52044;DHT22;38053;53.100;6.078;2023-03-01T07:43:51;-2.20;99.90
52044;DHT22;38053;53.100;6.078;2023-03-01T07:46:17;-2.10;99.90
52044;DHT22;38053;53.100;6.078;2023-03-01T07:48:44;-2.00;99.90
52044;DHT22;38053;53.100;6.078;2023-03-01T07:51:10;-1.90;99.90
52044;DHT22;38053;53.100;6.078;2023-03-01T07:53:39;-1.80;99.90
52044;DHT22;38053;53.100;6.078;2023-03-01T07:56:12;-1.70;99.90
52044;DHT22;38053;53.100;6.078;2023-03-01T07:58:41;-1.60;99.90
52044;DHT22;38053;53.100;6.078;2023-03-01T08:01:10;-1.50;99.90
52044;DHT22;38053;53.100;6.078;2023-03-01T08:03:39;-1.40;99.90
52044;DHT22;38053;53.100;6.078;2023-03-01T08:06:08;-1.20;99.90
52044;DHT22;38053;53.100;6.078;2023-03-01T08:08:37;-1.10;99.90
52044;DHT22;38053;53.100;6.078;2023-03-01T08:11:05;-1.00;99.90
52044;DHT22;38053;53.100;6.078;2023-03-01T08:13:32;-0.80;99.90
52044;DHT22;38053;53.100;6.078;2023-03-01T08:16:10;-0.70;99.90
52044;DHT22;38053;53.100;6.078;2023-03-01T08:18:40;-0.60;99.90
52044;DHT22;38053;53.100;6.078;2023-03-01T08:21:11;-0.40;99.90
52044;DHT22;38053;53.100;6.078;2023-03-01T08:23:38;-0.30;99.90
52044;DHT22;38053;53.100;6.078;2023-03-01T08:28:38;-0.10;99.90
52044;DHT22;38053;53.100;6.078;2023-03-01T08:31:26;0.00;99.90
52044;DHT22;38053;53.100;6.078;2023-03-01T08:33:55;0.20;99.90
52044;DHT22;38053;53.100;6.078;2023-03-01T08:36:23;0.20;99.90
52044;DHT22;38053;53.100;6.078;2023-03-01T08:38:52;0.30;99.90
52044;DHT22;38053;53.100;6.078;2023-03-01T08:41:20;0.40;99.90
52044;DHT22;38053;53.100;6.078;2023-03-01T08:43:46;0.40;99.90
52044;DHT22;38053;53.100;6.078;2023-03-01T08:46:13;0.50;99.90
52044;DHT22;38053;53.100;6.078;2023-03-01T08:48:39;0.50;99.90
52044;DHT22;38053;53.100;6.078;2023-03-01T08:51:19;0.60;99.90
52044;DHT22;38053;53.100;6.078;2023-03-01T08:53:44;0.80;99.90
52044;DHT22;38053;53.100;6.078;2023-03-01T08:56:11;0.90;99.90
52044;DHT22;38053;53.100;6.078;2023-03-01T08:58:37;1.00;99.90
52044;DHT22;38053;53.100;6.078;2023-03-01T09:01:10;1.10;99.90
52044;DHT22;38053;53.100;6.078;2023-03-01T09:03:38;1.20;99.90
52044;DHT22;38053;53.100;6.078;2023-03-01T09:06:08;1.30;99.90
52044;DHT22;38053;53.100;6.078;2023-03-01T09:08:41;1.30;99.90
52044;DHT22;38053;53.100;6.078;2023-03-01T09:11:09;1.40;99.90
52044;DHT22;38053;53.100;6.078;2023-03-01T09:13:37;1.50;99.90
52044;DHT22;38053;53.100;6.078;2023-03-01T09:16:05;1.60;99.90
52044;DHT22;38053;53.100;6.078;2023-03-01T09:18:32;1.70;99.90
52044;DHT22;38053;53.100;6.078;2023-03-01T09:21:07;1.80;99.90
52044;DHT22;38053;53.100;6.078;2023-03-01T09:23:38;1.80;99.90
52044;DHT22;38053;53.100;6.078;2023-03-01T09:26:07;1.90;99.90
52044;DHT22;38053;53.100;6.078;2023-03-01T09:28:38;2.10;99.90
52044;DHT22;38053;53.100;6.078;2023-03-01T09:31:04;2.20;99.90
52044;DHT22;38053;53.100;6.078;2023-03-01T09:33:31;2.30;99.90
52044;DHT22;38053;53.100;6.078;2023-03-01T09:36:03;2.40;99.90
52044;DHT22;38053;53.100;6.078;2023-03-01T09:38:29;2.50;99.90
52044;DHT22;38053;53.100;6.078;2023-03-01T09:40:56;2.60;99.90
52044;DHT22;38053;53.100;6.078;2023-03-01T09:43:44;2.70;99.90
52044;DHT22;38053;53.100;6.078;2023-03-01T09:46:13;2.90;99.90
52044;DHT22;38053;53.100;6.078;2023-03-01T09:48:51;3.00;99.90
52044;DHT22;38053;53.100;6.078;2023-03-01T09:51:26;3.10;99.90
52044;DHT22;38053;53.100;6.078;2023-03-01T09:53:53;3.20;99.90
52044;DHT22;38053;53.100;6.078;2023-03-01T09:56:30;3.20;99.90
52044;DHT22;38053;53.100;6.078;2023-03-01T09:59:19;3.30;99.90
52044;DHT22;38053;53.100;6.078;2023-03-01T10:02:05;3.40;99.90
52044;DHT22;38053;53.100;6.078;2023-03-01T10:04:46;3.60;99.90
52044;DHT22;38053;53.100;6.078;2023-03-01T10:07:51;3.70;99.90
52044;DHT22;38053;53.100;6.078;2023-03-01T10:10:28;3.90;99.90
52044;DHT22;38053;53.100;6.078;2023-03-01T10:12:57;4.00;99.90
52044;DHT22;38053;53.100;6.078;2023-03-01T10:15:57;4.10;99.90
52044;DHT22;38053;53.100;6.078;2023-03-01T10:18:30;4.30;99.90
52044;DHT22;38053;53.100;6.078;2023-03-01T10:21:05;4.50;99.90
52044;DHT22;38053;53.100;6.078;2023-03-01T10:23:35;4.70;99.90
52044;DHT22;38053;53.100;6.078;2023-03-01T10:31:23;5.30;99.90
52044;DHT22;38053;53.100;6.078;2023-03-01T10:33:54;5.40;99.90
52044;DHT22;38053;53.100;6.078;2023-03-01T10:36:22;5.60;99.90
52044;DHT22;38053;53.100;6.078;2023-03-01T10:38:54;5.70;99.90
52044;DHT22;38053;53.100;6.078;2023-03-01T10:41:26;5.80;99.90
52044;DHT22;38053;53.100;6.078;2023-03-01T10:43:57;6.00;99.90
52044;DHT22;38053;53.100;6.078;2023-03-01T10:46:33;6.10;99.90
52044;DHT22;38053;53.100;6.078;2023-03-01T10:49:23;6.20;99.90
52044;DHT22;38053;53.100;6.078;2023-03-01T10:51:52;6.30;99.90
52044;DHT22;38053;53.100;6.078;2023-03-01T10:56:54;6.50;99.90
52044;DHT22;38053;53.100;6.078;2023-03-01T10:59:29;6.60;99.90
52044;DHT22;38053;53.100;6.078;2023-03-01T11:04:59;6.90;99.90
52044;DHT22;38053;53.100;6.078;2023-03-01T11:07:25;7.20;99.90
52044;DHT22;38053;53.100;6.078;2023-03-01T11:09:51;7.50;99.90
52044;DHT22;38053;53.100;6.078;2023-03-01T11:12:17;7.70;99.90
52044;DHT22;38053;53.100;6.078;2023-03-01T11:14:48;7.70;99.90
52044;DHT22;38053;53.100;6.078;2023-03-01T11:17:27;7.70;99.90
52044;DHT22;38053;53.100;6.078;2023-03-01T11:20:24;7.60;99.90
52044;DHT22;38053;53.100;6.078;2023-03-01T11:22:54;7.60;99.90
52044;DHT22;38053;53.100;6.078;2023-03-01T11:25:27;7.60;99.90
52044;DHT22;38053;53.100;6.078;2023-03-01T11:27:55;7.60;99.90
52044;DHT22;38053;53.100;6.078;2023-03-01T11:30:35;7.70;99.90
52044;DHT22;38053;53.100;6.078;2023-03-01T11:33:53;8.10;99.90
52044;DHT22;38053;53.100;6.078;2023-03-01T11:36:05;8.50;99.90
52044;DHT22;38053;53.100;6.078;2023-03-01T11:38:35;9.00;99.90
52044;DHT22;38053;53.100;6.078;2023-03-01T11:41:07;9.20;99.90
52044;DHT22;38053;53.100;6.078;2023-03-01T12:06:12;10.40;99.90
52044;DHT22;38053;53.100;6.078;2023-03-01T12:11:41;11.10;99.90
52044;DHT22;38053;53.100;6.078;2023-03-01T12:17:26;11.30;99.90
52044;DHT22;38053;53.100;6.078;2023-03-01T12:21:13;11.40;99.90
52044;DHT22;38053;53.100;6.078;2023-03-01T12:32:09;12.30;97.60
52044;DHT22;38053;53.100;6.078;2023-03-01T12:37:32;12.40;98.30
52044;DHT22;38053;53.100;6.078;2023-03-01T12:49:16;13.00;97.10
52044;DHT22;38053;53.100;6.078;2023-03-01T12:51:55;13.10;97.40
52044;DHT22;38053;53.100;6.078;2023-03-01T12:54:30;13.20;97.80
52044;DHT22;38053;53.100;6.078;2023-03-01T12:56:59;13.50;96.10
52044;DHT22;38053;53.100;6.078;2023-03-01T12:59:40;13.70;96.30
52044;DHT22;38053;53.100;6.078;2023-03-01T13:05:00;13.60;96.10
52044;DHT22;38053;53.100;6.078;2023-03-01T13:07:41;13.80;93.90
52044;DHT22;38053;53.100;6.078;2023-03-01T13:13:18;14.00;92.60
52044;DHT22;38053;53.100;6.078;2023-03-01T13:15:44;13.60;93.00
52044;DHT22;38053;53.100;6.078;2023-03-01T13:21:04;12.80;95.40
52044;DHT22;38053;53.100;6.078;2023-03-01T13:23:35;12.50;94.60
52044;DHT22;38053;53.100;6.078;2023-03-01T13:26:22;12.50;94.20
52044;DHT22;38053;53.100;6.078;2023-03-01T13:28:50;12.00;94.80
52044;DHT22;38053;53.100;6.078;2023-03-01T13:33:49;11.60;95.10
52044;DHT22;38053;53.100;6.078;2023-03-01T13:36:48;11.50;95.90
52044;DHT22;38053;53.100;6.078;2023-03-01T13:39:27;11.30;96.30
52044;DHT22;38053;53.100;6.078;2023-03-01T13:41:55;11.20;96.10
52044;DHT22;38053;53.100;6.078;2023-03-01T13:44:38;10.70;97.30
52044;DHT22;38053;53.100;6.078;2023-03-01T13:49:49;10.90;97.90
52044;DHT22;38053;53.100;6.078;2023-03-01T13:54:55;10.40;98.90
52044;DHT22;38053;53.100;6.078;2023-03-01T13:57:26;10.20;99.20
52044;DHT22;38053;53.100;6.078;2023-03-01T13:59:54;10.30;99.70
52044;DHT22;38053;53.100;6.078;2023-03-01T14:02:20;10.30;99.90
52044;DHT22;38053;53.100;6.078;2023-03-01T14:04:57;10.40;99.70
52044;DHT22;38053;53.100;6.078;2023-03-01T14:07:23;10.60;99.80
52044;DHT22;38053;53.100;6.078;2023-03-01T14:09:55;10.80;99.00
52044;DHT22;38053;53.100;6.078;2023-03-01T14:12:38;10.90;98.80
52044;DHT22;38053;53.100;6.078;2023-03-01T14:15:19;10.80;98.90
52044;DHT22;38053;53.100;6.078;2023-03-01T14:20:43;11.60;97.80
52044;DHT22;38053;53.100;6.078;2023-03-01T14:23:18;12.00;98.10
52044;DHT22;38053;53.100;6.078;2023-03-01T14:25:50;12.30;97.30
52044;DHT22;38053;53.100;6.078;2023-03-01T14:28:30;12.10;97.70
52044;DHT22;38053;53.100;6.078;2023-03-01T14:31:00;11.60;97.50
52044;DHT22;38053;53.100;6.078;2023-03-01T14:33:32;11.00;98.90
52044;DHT22;38053;53.100;6.078;2023-03-01T14:40:59;10.90;99.50
52044;DHT22;38053;53.100;6.078;2023-03-01T14:43:27;11.30;98.70
52044;DHT22;38053;53.100;6.078;2023-03-01T14:45:56;11.30;98.70
52044;DHT22;38053;53.100;6.078;2023-03-01T14:48:23;10.90;99.20
52044;DHT22;38053;53.100;6.078;2023-03-01T14:50:49;10.60;99.90
52044;DHT22;38053;53.100;6.078;2023-03-01T14:53:28;10.60;99.90
52044;DHT22;38053;53.100;6.078;2023-03-01T14:56:01;11.00;99.20
52044;DHT22;38053;53.100;6.078;2023-03-01T14:58:32;11.30;98.20
52044;DHT22;38053;53.100;6.078;2023-03-01T15:01:02;11.70;97.40
52044;DHT22;38053;53.100;6.078;2023-03-01T15:03:34;12.10;97.00
52044;DHT22;38053;53.100;6.078;2023-03-01T15:06:03;12.50;96.30
52044;DHT22;38053;53.100;6.078;2023-03-01T15:08:29;12.60;94.50
52044;DHT22;38053;53.100;6.078;2023-03-01T15:11:29;12.10;95.20
52044;DHT22;38053;53.100;6.078;2023-03-01T15:14:25;11.70;96.40
52044;DHT22;38053;53.100;6.078;2023-03-01T15:16:50;11.60;97.90
52044;DHT22;38053;53.100;6.078;2023-03-01T15:19:27;11.70;97.40
52044;DHT22;38053;53.100;6.078;2023-03-01T15:21:54;11.70;97.60
52044;DHT22;38053;53.100;6.078;2023-03-01T15:24:24;11.90;97.00
52044;DHT22;38053;53.100;6.078;2023-03-01T15:26:53;11.90;97.70
52044;DHT22;38053;53.100;6.078;2023-03-01T15:29:25;11.90;97.50
52044;DHT22;38053;53.100;6.078;2023-03-01T15:34:32;11.90;97.80
52044;DHT22;38053;53.100;6.078;2023-03-01T15:37:03;11.90;97.40
52044;DHT22;38053;53.100;6.078;2023-03-01T15:39:40;11.90;97.10
52044;DHT22;38053;53.100;6.078;2023-03-01T15:42:13;11.70;97.40
52044;DHT22;38053;53.100;6.078;2023-03-01T15:45:31;11.60;98.30
52044;DHT22;38053;53.100;6.078;2023-03-01T15:48:19;12.10;96.90
52044;DHT22;38053;53.100;6.078;2023-03-01T15:50:57;12.10;96.80
52044;DHT22;38053;53.100;6.078;2023-03-01T15:53:24;11.90;97.40
52044;DHT22;38053;53.100;6.078;2023-03-01T15:55:52;11.60;98.10
52044;DHT22;38053;53.100;6.078;2023-03-01T15:58:22;11.40;97.90
52044;DHT22;38053;53.100;6.078;2023-03-01T16:00:49;10.80;98.50
52044;DHT22;38053;53.100;6.078;2023-03-01T16:03:20;10.20;99.90
52044;DHT22;38053;53.100;6.078;2023-03-01T16:05:50;9.80;99.90
52044;DHT22;38053;53.100;6.078;2023-03-01T16:08:17;9.60;99.90
52044;DHT22;38053;53.100;6.078;2023-03-01T16:10:44;9.40;99.90
52044;DHT22;38053;53.100;6.078;2023-03-01T16:13:13;9.20;99.90
52044;DHT22;38053;53.100;6.078;2023-03-01T16:15:39;9.00;99.90
52044;DHT22;38053;53.100;6.078;2023-03-01T16:18:11;8.60;99.90
52044;DHT22;38053;53.100;6.078;2023-03-01T16:20:38;8.30;99.90
52044;DHT22;38053;53.100;6.078;2023-03-01T16:23:06;8.00;99.90
52044;DHT22;38053;53.100;6.078;2023-03-01T16:25:32;7.90;99.90
52044;DHT22;38053;53.100;6.078;2023-03-01T16:27:59;7.70;99.90
52044;DHT22;38053;53.100;6.078;2023-03-01T16:30:29;7.60;99.90
52044;DHT22;38053;53.100;6.078;2023-03-01T16:32:55;7.50;99.90
52044;DHT22;38053;53.100;6.078;2023-03-01T16:35:22;7.40;99.90
52044;DHT22;38053;53.100;6.078;2023-03-01T16:37:49;7.30;99.90
52044;DHT22;38053;53.100;6.078;2023-03-01T16:40:27;7.20;99.90
52044;DHT22;38053;53.100;6.078;2023-03-01T16:42:54;7.10;99.90
52044;DHT22;38053;53.100;6.078;2023-03-01T16:45:20;7.00;99.90
52044;DHT22;38053;53.100;6.078;2023-03-01T16:47:53;6.90;99.90
52044;DHT22;38053;53.100;6.078;2023-03-01T16:50:19;6.80;99.90
52044;DHT22;38053;53.100;6.078;2023-03-01T16:52:47;6.70;99.90
52044;DHT22;38053;53.100;6.078;2023-03-01T16:55:13;6.70;99.90
52044;DHT22;38053;53.100;6.078;2023-03-01T16:57:39;6.60;99.90
52044;DHT22;38053;53.100;6.078;2023-03-01T17:00:13;6.60;99.90
52044;DHT22;38053;53.100;6.078;2023-03-01T17:02:39;6.50;99.90
52044;DHT22;38053;53.100;6.078;2023-03-01T17:05:09;6.40;99.90
52044;DHT22;38053;53.100;6.078;2023-03-01T17:07:38;6.30;99.90
52044;DHT22;38053;53.100;6.078;2023-03-01T17:10:09;6.30;99.90
52044;DHT22;38053;53.100;6.078;2023-03-01T17:12:35;6.10;99.90
52044;DHT22;38053;53.100;6.078;2023-03-01T17:15:06;6.00;99.90
52044;DHT22;38053;53.100;6.078;2023-03-01T17:17:34;5.90;99.90
52044;DHT22;38053;53.100;6.078;2023-03-01T17:20:00;5.80;99.90
52044;DHT22;38053;53.100;6.078;2023-03-01T17:22:25;5.80;99.90
52044;DHT22;38053;53.100;6.078;2023-03-01T17:24:54;5.70;99.90
52044;DHT22;38053;53.100;6.078;2023-03-01T17:27:20;5.60;99.90
52044;DHT22;38053;53.100;6.078;2023-03-01T17:29:45;5.50;99.90
52044;DHT22;38053;53.100;6.078;2023-03-01T17:32:11;5.50;99.90
52044;DHT22;38053;53.100;6.078;2023-03-01T17:34:37;5.40;99.90
52044;DHT22;38053;53.100;6.078;2023-03-01T17:37:03;5.30;99.90
52044;DHT22;38053;53.100;6.078;2023-03-01T17:39:29;5.30;99.90